Time,TemperatureF,DewpointF,PressureIn,WindDirection,WindDirectionDegrees,WindSpeedMPH,WindSpeedGustMPH,Humidity,HourlyPrecipIn,Conditions,Clouds,dailyrainin,SoftwareType,DateUTC
2013-06-20 00:01:00,52.7,44.0,30.16,East,90,0.0,0.0,72,0.00,,,0.00,WUHU21623XXSP,2013-06-20 04:01:00,
2013-06-20 00:06:00,52.7,44.0,30.16,East,90,0.0,0.0,72,0.00,,,0.00,WUHU21623XXSP,2013-06-20 04:06:00,
2013-06-20 00:11:00,52.5,44.5,30.15,East,90,0.0,0.0,74,0.00,,,0.00,WUHU21623XXSP,2013-06-20 04:11:00,
2013-06-20 00:16:00,52.5,44.5,30.16,East,90,0.0,0.0,74,0.00,,,0.00,WUHU21623XXSP,2013-06-20 04:16:00,
2013-06-20 00:21:00,52.2,44.2,30.16,East,90,0.0,0.0,74,0.00,,,0.00,WUHU21623XXSP,2013-06-20 04:21:00,
2013-06-20 00:26:00,52.2,44.6,30.16,East,90,0.0,0.0,75,0.00,,,0.00,WUHU21623XXSP,2013-06-20 04:26:00,
2013-06-20 00:31:00,52.2,44.6,30.16,East,90,0.0,0.0,75,0.00,,,0.00,WUHU21623XXSP,2013-06-20 04:31:00,
2013-06-20 00:37:00,52.0,44.4,30.16,East,90,0.0,0.0,75,0.00,,,0.00,WUHU21623XXSP,2013-06-20 04:37:00,
2013-06-20 00:41:00,51.8,44.2,30.16,East,90,0.0,0.0,75,0.00,,,0.00,WUHU21623XXSP,2013-06-20 04:41:00,
2013-06-20 00:47:00,51.6,44.4,30.17,East,90,0.0,0.0,76,0.00,,,0.00,WUHU21623XXSP,2013-06-20 04:47:00,
2013-06-20 00:51:00,51.4,44.2,30.17,East,90,0.0,0.0,76,0.00,,,0.00,WUHU21623XXSP,2013-06-20 04:51:00,
2013-06-20 00:56:00,51.4,44.2,30.17,East,90,0.0,0.0,76,0.00,,,0.00,WUHU21623XXSP,2013-06-20 04:56:00,
2013-06-20 01:01:00,51.3,44.1,30.17,East,90,0.0,0.0,76,0.00,,,0.00,WUHU21623XXSP,2013-06-20 05:01:00,
2013-06-20 01:06:00,51.3,44.1,30.17,East,90,0.0,0.0,76,0.00,,,0.00,WUHU21623XXSP,2013-06-20 05:06:00,
2013-06-20 01:11:00,50.9,43.7,30.16,East,90,0.0,0.0,76,0.00,,,0.00,WUHU21623XXSP,2013-06-20 05:11:00,
2013-06-20 01:16:00,50.7,43.8,30.17,East,90,0.0,0.0,77,0.00,,,0.00,WUHU21623XXSP,2013-06-20 05:16:00,
2013-06-20 01:21:00,50.7,44.1,30.17,East,90,0.0,0.0,78,0.00,,,0.00,WUHU21623XXSP,2013-06-20 05:21:00,
2013-06-20 01:26:00,50.7,44.1,30.17,East,90,0.0,0.0,78,0.00,,,0.00,WUHU21623XXSP,2013-06-20 05:26:00,
2013-06-20 01:31:00,50.4,43.9,30.17,East,90,0.0,0.0,78,0.00,,,0.00,WUHU21623XXSP,2013-06-20 05:31:00,
2013-06-20 01:36:00,50.5,43.9,30.17,East,90,0.0,0.0,78,0.00,,,0.00,WUHU21623XXSP,2013-06-20 05:36:00,
2013-06-20 01:41:00,50.4,43.9,30.17,East,90,0.0,0.0,78,0.00,,,0.00,WUHU21623XXSP,2013-06-20 05:41:00,
2013-06-20 01:46:00,50.2,44.0,30.17,East,90,0.0,0.0,79,0.00,,,0.00,WUHU21623XXSP,2013-06-20 05:46:00,
2013-06-20 01:51:00,50.0,43.8,30.17,East,90,0.0,0.0,79,0.00,,,0.00,WUHU21623XXSP,2013-06-20 05:51:00,
2013-06-20 01:56:00,49.8,43.6,30.17,East,90,0.0,0.0,79,0.00,,,0.00,WUHU21623XXSP,2013-06-20 05:56:00,
2013-06-20 02:01:00,50.0,43.8,30.17,East,90,0.0,0.0,79,0.00,,,0.00,WUHU21623XXSP,2013-06-20 06:01:00,
2013-06-20 02:06:00,49.6,43.4,30.18,East,90,0.0,0.0,79,0.00,,,0.00,WUHU21623XXSP,2013-06-20 06:06:00,
2013-06-20 02:11:00,49.5,43.3,30.18,East,90,0.0,0.0,79,0.00,,,0.00,WUHU21623XXSP,2013-06-20 06:11:00,
2013-06-20 02:16:00,49.1,42.9,30.18,East,90,0.0,0.0,79,0.00,,,0.00,WUHU21623XXSP,2013-06-20 06:16:00,
2013-06-20 02:21:00,49.1,42.9,30.18,East,90,0.0,0.0,79,0.00,,,0.00,WUHU21623XXSP,2013-06-20 06:21:00,
2013-06-20 02:26:00,48.9,43.0,30.18,East,90,0.0,0.0,80,0.00,,,0.00,WUHU21623XXSP,2013-06-20 06:26:00,
2013-06-20 02:31:00,48.7,43.2,30.19,East,90,0.0,0.0,81,0.00,,,0.00,WUHU21623XXSP,2013-06-20 06:31:00,
2013-06-20 02:36:00,48.7,43.2,30.19,East,90,0.0,0.0,81,0.00,,,0.00,WUHU21623XXSP,2013-06-20 06:36:00,
2013-06-20 02:41:00,48.6,43.1,30.19,East,90,0.0,0.0,81,0.00,,,0.00,WUHU21623XXSP,2013-06-20 06:41:00,
2013-06-20 02:46:00,48.4,42.9,30.19,East,90,0.0,0.0,81,0.00,,,0.00,WUHU21623XXSP,2013-06-20 06:46:00,
2013-06-20 02:51:00,48.2,42.7,30.19,East,90,0.0,0.0,81,0.00,,,0.00,WUHU21623XXSP,2013-06-20 06:51:00,
2013-06-20 02:56:00,48.0,42.5,30.19,East,90,0.0,0.0,81,0.00,,,0.00,WUHU21623XXSP,2013-06-20 06:56:00,
2013-06-20 03:01:00,48.4,42.9,30.19,East,90,0.0,0.0,81,0.00,,,0.00,WUHU21623XXSP,2013-06-20 07:01:00,
2013-06-20 03:06:00,48.2,42.7,30.19,East,90,0.0,0.0,81,0.00,,,0.00,WUHU21623XXSP,2013-06-20 07:06:00,
2013-06-20 03:11:00,48.2,43.0,30.19,East,90,0.0,0.0,82,0.00,,,0.00,WUHU21623XXSP,2013-06-20 07:11:00,
2013-06-20 03:16:00,48.4,43.2,30.19,East,90,0.0,0.0,82,0.00,,,0.00,WUHU21623XXSP,2013-06-20 07:16:00,
2013-06-20 03:21:00,48.2,43.0,30.19,East,90,0.0,0.0,82,0.00,,,0.00,WUHU21623XXSP,2013-06-20 07:21:00,
2013-06-20 03:26:00,47.8,42.6,30.19,East,90,0.0,0.0,82,0.00,,,0.00,WUHU21623XXSP,2013-06-20 07:26:00,
2013-06-20 03:31:00,47.8,42.6,30.19,East,90,0.0,0.0,82,0.00,,,0.00,WUHU21623XXSP,2013-06-20 07:31:00,
2013-06-20 03:36:00,47.7,42.5,30.19,East,90,0.0,0.0,82,0.00,,,0.00,WUHU21623XXSP,2013-06-20 07:36:00,
2013-06-20 03:41:00,47.5,42.3,30.19,East,90,0.0,0.0,82,0.00,,,0.00,WUHU21623XXSP,2013-06-20 07:41:00,
2013-06-20 03:46:00,47.3,42.1,30.19,East,90,0.0,0.0,82,0.00,,,0.00,WUHU21623XXSP,2013-06-20 07:46:00,
2013-06-20 03:51:00,47.1,41.9,30.19,East,90,0.0,0.0,82,0.00,,,0.00,WUHU21623XXSP,2013-06-20 07:51:00,
2013-06-20 03:56:00,47.1,42.2,30.20,East,90,0.0,0.0,83,0.00,,,0.00,WUHU21623XXSP,2013-06-20 07:56:00,
2013-06-20 04:01:00,46.9,42.0,30.20,East,90,0.0,0.0,83,0.00,,,0.00,WUHU21623XXSP,2013-06-20 08:01:00,
2013-06-20 04:06:00,46.8,41.9,30.20,East,90,0.0,0.0,83,0.00,,,0.00,WUHU21623XXSP,2013-06-20 08:06:00,
2013-06-20 04:11:00,46.8,41.9,30.20,East,90,0.0,0.0,83,0.00,,,0.00,WUHU21623XXSP,2013-06-20 08:11:00,
2013-06-20 04:16:00,46.8,42.2,30.20,East,90,0.0,0.0,84,0.00,,,0.00,WUHU21623XXSP,2013-06-20 08:16:00,
2013-06-20 04:21:00,46.8,42.2,30.20,East,90,0.0,0.0,84,0.00,,,0.00,WUHU21623XXSP,2013-06-20 08:21:00,
2013-06-20 04:26:00,46.8,42.2,30.21,East,90,0.0,0.0,84,0.00,,,0.00,WUHU21623XXSP,2013-06-20 08:26:00,
2013-06-20 04:31:00,46.8,42.2,30.21,East,90,0.0,0.0,84,0.00,,,0.00,WUHU21623XXSP,2013-06-20 08:31:00,
2013-06-20 04:36:00,46.6,42.0,30.22,East,90,0.0,0.0,84,0.00,,,0.00,WUHU21623XXSP,2013-06-20 08:36:00,
2013-06-20 04:41:00,46.2,41.6,30.22,East,90,0.0,0.0,84,0.00,,,0.00,WUHU21623XXSP,2013-06-20 08:41:00,
2013-06-20 04:46:00,46.0,41.4,30.22,East,90,0.0,0.0,84,0.00,,,0.00,WUHU21623XXSP,2013-06-20 08:46:00,
2013-06-20 04:51:00,46.0,41.4,30.22,East,90,0.0,0.0,84,0.00,,,0.00,WUHU21623XXSP,2013-06-20 08:51:00,
2013-06-20 04:56:00,46.0,41.4,30.22,East,90,0.0,0.0,84,0.00,,,0.00,WUHU21623XXSP,2013-06-20 08:56:00,
2013-06-20 05:01:00,46.0,41.4,30.22,East,90,0.0,0.0,84,0.00,,,0.00,WUHU21623XXSP,2013-06-20 09:01:00,
2013-06-20 05:06:00,45.9,41.3,30.23,East,90,0.0,0.0,84,0.00,,,0.00,WUHU21623XXSP,2013-06-20 09:06:00,
2013-06-20 05:11:00,45.9,41.3,30.22,East,90,0.0,0.0,84,0.00,,,0.00,WUHU21623XXSP,2013-06-20 09:11:00,
2013-06-20 05:16:00,45.5,40.9,30.23,East,90,0.0,0.0,84,0.00,,,0.00,WUHU21623XXSP,2013-06-20 09:16:00,
2013-06-20 05:21:00,45.3,40.7,30.22,East,90,0.0,0.0,84,0.00,,,0.00,WUHU21623XXSP,2013-06-20 09:21:00,
2013-06-20 05:26:00,45.3,41.0,30.22,East,90,0.0,0.0,85,0.00,,,0.00,WUHU21623XXSP,2013-06-20 09:26:00,
2013-06-20 05:31:00,45.3,40.7,30.23,East,90,0.0,0.0,84,0.00,,,0.00,WUHU21623XXSP,2013-06-20 09:31:00,
2013-06-20 05:36:00,45.3,41.0,30.23,East,90,0.0,0.0,85,0.00,,,0.00,WUHU21623XXSP,2013-06-20 09:36:00,
2013-06-20 05:41:00,45.1,40.8,30.23,East,90,0.0,0.0,85,0.00,,,0.00,WUHU21623XXSP,2013-06-20 09:41:00,
2013-06-20 05:46:00,45.1,40.8,30.23,East,90,0.0,0.0,85,0.00,,,0.00,WUHU21623XXSP,2013-06-20 09:46:00,
2013-06-20 05:51:00,45.0,40.7,30.24,East,90,0.0,0.0,85,0.00,,,0.00,WUHU21623XXSP,2013-06-20 09:51:00,
2013-06-20 05:56:00,45.0,40.7,30.23,East,90,0.0,0.0,85,0.00,,,0.00,WUHU21623XXSP,2013-06-20 09:56:00,
2013-06-20 06:01:00,45.0,40.7,30.24,East,90,0.0,0.0,85,0.00,,,0.00,WUHU21623XXSP,2013-06-20 10:01:00,
2013-06-20 06:06:00,45.0,40.7,30.24,East,90,0.0,0.0,85,0.00,,,0.00,WUHU21623XXSP,2013-06-20 10:06:00,
2013-06-20 06:11:00,45.3,41.0,30.24,East,90,0.0,0.0,85,0.00,,,0.00,WUHU21623XXSP,2013-06-20 10:11:00,
2013-06-20 06:16:00,45.1,40.8,30.24,East,90,0.0,0.0,85,0.00,,,0.00,WUHU21623XXSP,2013-06-20 10:16:00,
2013-06-20 06:21:00,45.3,41.3,30.24,East,90,0.0,0.0,86,0.00,,,0.00,WUHU21623XXSP,2013-06-20 10:21:00,
2013-06-20 06:26:00,45.3,41.3,30.24,East,90,0.0,0.0,86,0.00,,,0.00,WUHU21623XXSP,2013-06-20 10:26:00,
2013-06-20 06:31:00,45.7,41.7,30.25,East,90,0.0,0.0,86,0.00,,,0.00,WUHU21623XXSP,2013-06-20 10:31:00,
2013-06-20 06:36:00,45.9,41.9,30.25,East,90,0.0,0.0,86,0.00,,,0.00,WUHU21623XXSP,2013-06-20 10:36:00,
2013-06-20 06:41:00,46.0,42.0,30.25,East,90,0.0,0.0,86,0.00,,,0.00,WUHU21623XXSP,2013-06-20 10:41:00,
2013-06-20 06:46:00,46.0,42.0,30.25,East,90,0.0,0.0,86,0.00,,,0.00,WUHU21623XXSP,2013-06-20 10:46:00,
2013-06-20 06:51:00,46.4,42.7,30.25,East,90,0.0,0.0,87,0.00,,,0.00,WUHU21623XXSP,2013-06-20 10:51:00,
2013-06-20 06:56:00,46.8,43.1,30.25,East,90,0.0,0.0,87,0.00,,,0.00,WUHU21623XXSP,2013-06-20 10:56:00,
2013-06-20 07:01:00,46.9,43.2,30.25,East,90,0.0,0.0,87,0.00,,,0.00,WUHU21623XXSP,2013-06-20 11:01:00,
2013-06-20 07:06:00,47.3,43.3,30.25,East,90,0.0,0.0,86,0.00,,,0.00,WUHU21623XXSP,2013-06-20 11:06:00,
2013-06-20 07:11:00,47.7,44.0,30.26,East,90,0.0,0.0,87,0.00,,,0.00,WUHU21623XXSP,2013-06-20 11:11:00,
2013-06-20 07:16:00,47.8,44.1,30.25,East,90,0.0,0.0,87,0.00,,,0.00,WUHU21623XXSP,2013-06-20 11:16:00,
2013-06-20 07:21:00,48.4,44.7,30.26,East,90,0.0,0.0,87,0.00,,,0.00,WUHU21623XXSP,2013-06-20 11:21:00,
2013-06-20 07:26:00,48.7,45.0,30.26,East,90,0.0,0.0,87,0.00,,,0.00,WUHU21623XXSP,2013-06-20 11:26:00,
2013-06-20 07:31:00,49.1,45.4,30.26,East,90,0.0,0.0,87,0.00,,,0.00,WUHU21623XXSP,2013-06-20 11:31:00,
2013-06-20 07:36:00,49.6,45.9,30.26,East,90,0.0,0.0,87,0.00,,,0.00,WUHU21623XXSP,2013-06-20 11:36:00,
2013-06-20 07:41:00,50.2,46.5,30.26,East,90,0.0,0.0,87,0.00,,,0.00,WUHU21623XXSP,2013-06-20 11:41:00,
2013-06-20 07:46:00,50.5,46.8,30.26,East,90,0.0,0.0,87,0.00,,,0.00,WUHU21623XXSP,2013-06-20 11:46:00,
2013-06-20 07:51:00,50.9,47.1,30.26,East,90,0.0,0.0,87,0.00,,,0.00,WUHU21623XXSP,2013-06-20 11:51:00,
2013-06-20 07:56:00,51.4,47.6,30.26,East,90,0.0,0.0,87,0.00,,,0.00,WUHU21623XXSP,2013-06-20 11:56:00,
2013-06-20 08:01:00,51.6,47.8,30.26,East,90,0.0,0.0,87,0.00,,,0.00,WUHU21623XXSP,2013-06-20 12:01:00,
2013-06-20 08:06:00,52.2,48.4,30.26,East,90,0.0,0.0,87,0.00,,,0.00,WUHU21623XXSP,2013-06-20 12:06:00,
2013-06-20 08:11:00,52.9,49.1,30.26,East,90,0.0,0.0,87,0.00,,,0.00,WUHU21623XXSP,2013-06-20 12:11:00,
2013-06-20 08:16:00,53.6,49.8,30.26,East,90,0.0,0.0,87,0.00,,,0.00,WUHU21623XXSP,2013-06-20 12:16:00,
2013-06-20 08:21:00,54.3,50.2,30.25,East,90,0.0,0.0,86,0.00,,,0.00,WUHU21623XXSP,2013-06-20 12:21:00,
2013-06-20 08:26:00,54.9,50.5,30.26,East,90,0.0,0.0,85,0.00,,,0.00,WUHU21623XXSP,2013-06-20 12:26:00,
2013-06-20 08:31:00,55.0,50.3,30.26,East,90,0.0,0.0,84,0.00,,,0.00,WUHU21623XXSP,2013-06-20 12:31:00,
2013-06-20 08:36:00,55.6,50.9,30.26,East,90,0.0,0.0,84,0.00,,,0.00,WUHU21623XXSP,2013-06-20 12:36:00,
2013-06-20 08:41:00,56.1,51.0,30.26,East,90,0.0,0.0,83,0.00,,,0.00,WUHU21623XXSP,2013-06-20 12:41:00,
2013-06-20 08:46:00,56.5,50.8,30.25,East,90,0.0,0.0,81,0.00,,,0.00,WUHU21623XXSP,2013-06-20 12:46:00,
2013-06-20 08:51:00,56.8,50.7,30.26,East,90,0.0,0.0,80,0.00,,,0.00,WUHU21623XXSP,2013-06-20 12:51:00,
2013-06-20 08:56:00,57.2,50.5,30.26,East,90,0.0,0.0,78,0.00,,,0.00,WUHU21623XXSP,2013-06-20 12:56:00,
2013-06-20 09:01:00,57.6,50.2,30.25,East,90,0.0,0.0,76,0.00,,,0.00,WUHU21623XXSP,2013-06-20 13:01:00,
2013-06-20 09:06:00,58.1,50.7,30.25,East,90,0.0,0.0,76,0.00,,,0.00,WUHU21623XXSP,2013-06-20 13:06:00,
2013-06-20 09:11:00,58.6,50.8,30.25,East,90,0.0,0.0,75,0.00,,,0.00,WUHU21623XXSP,2013-06-20 13:11:00,
2013-06-20 09:16:00,59.2,50.7,30.25,East,90,0.0,0.0,73,0.00,,,0.00,WUHU21623XXSP,2013-06-20 13:16:00,
2013-06-20 09:21:00,59.7,50.4,30.25,East,90,0.0,0.0,71,0.00,,,0.00,WUHU21623XXSP,2013-06-20 13:21:00,
2013-06-20 09:26:00,59.9,49.8,30.25,East,90,0.0,0.0,69,0.00,,,0.00,WUHU21623XXSP,2013-06-20 13:26:00,
2013-06-20 09:31:00,60.4,50.3,30.24,East,90,0.0,0.0,69,0.00,,,0.00,WUHU21623XXSP,2013-06-20 13:31:00,
2013-06-20 09:36:00,61.2,50.3,30.24,East,90,0.0,0.0,67,0.00,,,0.00,WUHU21623XXSP,2013-06-20 13:36:00,
2013-06-20 09:41:00,62.1,51.2,30.24,East,90,0.0,0.0,67,0.00,,,0.00,WUHU21623XXSP,2013-06-20 13:41:00,
2013-06-20 09:46:00,62.8,48.8,30.24,East,90,0.0,0.0,60,0.00,,,0.00,WUHU21623XXSP,2013-06-20 13:46:00,
2013-06-20 09:51:00,63.9,46.5,30.24,East,90,0.0,0.0,53,0.00,,,0.00,WUHU21623XXSP,2013-06-20 13:51:00,
2013-06-20 09:56:00,64.6,46.1,30.24,ESE,112,0.0,0.0,51,0.00,,,0.00,WUHU21623XXSP,2013-06-20 13:56:00,
2013-06-20 10:01:00,64.8,48.4,30.24,East,90,1.0,1.2,55,0.00,,,0.00,WUHU21623XXSP,2013-06-20 14:01:00,
2013-06-20 10:06:00,66.0,47.4,30.23,ESE,112,0.0,3.6,51,0.00,,,0.00,WUHU21623XXSP,2013-06-20 14:06:00,
2013-06-20 10:11:00,66.2,48.1,30.24,ESE,112,0.0,3.6,52,0.00,,,0.00,WUHU21623XXSP,2013-06-20 14:11:00,
2013-06-20 10:16:00,66.9,47.1,30.24,ENE,67,0.7,3.0,49,0.00,,,0.00,WUHU21623XXSP,2013-06-20 14:16:00,
2013-06-20 10:21:00,66.6,45.7,30.24,East,90,0.0,3.0,47,0.00,,,0.00,WUHU21623XXSP,2013-06-20 14:21:00,
2013-06-20 10:26:00,67.1,46.2,30.24,ENE,67,0.0,3.9,47,0.00,,,0.00,WUHU21623XXSP,2013-06-20 14:26:00,
2013-06-20 10:31:00,67.5,45.4,30.23,ENE,67,0.0,4.8,45,0.00,,,0.00,WUHU21623XXSP,2013-06-20 14:31:00,
2013-06-20 10:36:00,68.2,45.4,30.23,NE,45,0.0,5.7,44,0.00,,,0.00,WUHU21623XXSP,2013-06-20 14:36:00,
2013-06-20 10:41:00,68.4,45.6,30.23,ENE,67,0.0,6.4,44,0.00,,,0.00,WUHU21623XXSP,2013-06-20 14:41:00,
2013-06-20 10:46:00,68.9,45.4,30.23,NE,45,1.7,6.4,43,0.00,,,0.00,WUHU21623XXSP,2013-06-20 14:46:00,
2013-06-20 10:51:00,69.6,46.7,30.23,NE,45,2.7,3.4,44,0.00,,,0.00,WUHU21623XXSP,2013-06-20 14:51:00,
2013-06-20 10:56:00,70.2,46.6,30.22,West,270,4.1,4.4,43,0.00,,,0.00,WUHU21623XXSP,2013-06-20 14:56:00,
2013-06-20 11:01:00,70.2,46.6,30.23,NNE,22,0.0,4.7,43,0.00,,,0.00,WUHU21623XXSP,2013-06-20 15:01:00,
2013-06-20 11:06:00,70.5,48.1,30.23,West,270,0.0,4.7,45,0.00,,,0.00,WUHU21623XXSP,2013-06-20 15:06:00,
2013-06-20 11:11:00,71.1,48.0,30.23,North,0,3.7,3.7,44,0.00,,,0.00,WUHU21623XXSP,2013-06-20 15:11:00,
2013-06-20 11:16:00,71.8,48.7,30.22,ENE,67,1.5,4.0,44,0.00,,,0.00,WUHU21623XXSP,2013-06-20 15:16:00,
2013-06-20 11:21:00,72.0,48.9,30.22,ENE,67,3.8,4.0,44,0.00,,,0.00,WUHU21623XXSP,2013-06-20 15:21:00,
2013-06-20 11:26:00,72.7,49.5,30.22,WNW,292,0.0,7.4,44,0.00,,,0.00,WUHU21623XXSP,2013-06-20 15:26:00,
2013-06-20 11:31:00,71.8,46.7,30.22,West,270,1.4,7.4,41,0.00,,,0.00,WUHU21623XXSP,2013-06-20 15:31:00,
2013-06-20 11:36:00,71.1,46.8,30.22,WSW,247,2.0,5.4,42,0.00,,,0.00,WUHU21623XXSP,2013-06-20 15:36:00,
2013-06-20 11:41:00,71.6,45.9,30.22,SW,225,0.0,4.9,40,0.00,,,0.00,WUHU21623XXSP,2013-06-20 15:41:00,
2013-06-20 11:46:00,72.7,48.9,30.22,WSW,247,1.2,7.6,43,0.00,,,0.00,WUHU21623XXSP,2013-06-20 15:46:00,
2013-06-20 11:51:00,73.0,49.1,30.22,ENE,67,0.0,7.6,43,0.00,,,0.00,WUHU21623XXSP,2013-06-20 15:51:00,
2013-06-20 11:56:00,73.0,45.8,30.21,SSW,202,2.6,5.6,38,0.00,,,0.00,WUHU21623XXSP,2013-06-20 15:56:00,
2013-06-20 12:01:00,73.4,48.8,30.22,West,270,0.0,5.6,42,0.00,,,0.00,WUHU21623XXSP,2013-06-20 16:01:00,
2013-06-20 12:06:00,74.1,47.4,30.22,SE,135,0.0,5.5,39,0.00,,,0.00,WUHU21623XXSP,2013-06-20 16:06:00,
2013-06-20 12:11:00,73.2,45.2,30.22,WSW,247,0.0,10.7,37,0.00,,,0.00,WUHU21623XXSP,2013-06-20 16:11:00,
2013-06-20 12:16:00,72.5,46.7,30.22,North,0,2.9,10.7,40,0.00,,,0.00,WUHU21623XXSP,2013-06-20 16:16:00,
2013-06-20 12:21:00,73.2,47.3,30.22,WSW,247,0.0,4.8,40,0.00,,,0.00,WUHU21623XXSP,2013-06-20 16:21:00,
2013-06-20 12:26:00,72.9,45.7,30.22,NE,45,0.0,5.6,38,0.00,,,0.00,WUHU21623XXSP,2013-06-20 16:26:00,
2013-06-20 12:31:00,74.1,47.4,30.22,SW,225,0.0,5.6,39,0.00,,,0.00,WUHU21623XXSP,2013-06-20 16:31:00,
2013-06-20 12:36:00,74.8,49.4,30.22,ENE,67,4.3,5.5,41,0.00,,,0.00,WUHU21623XXSP,2013-06-20 16:36:00,
2013-06-20 12:41:00,74.8,45.2,30.22,SSW,202,0.0,4.9,35,0.00,,,0.00,WUHU21623XXSP,2013-06-20 16:41:00,
2013-06-20 12:46:00,73.8,46.5,30.21,ENE,67,1.5,4.9,38,0.00,,,0.00,WUHU21623XXSP,2013-06-20 16:46:00,
2013-06-20 12:51:00,75.0,46.8,30.22,SW,225,0.5,4.9,37,0.00,,,0.00,WUHU21623XXSP,2013-06-20 16:51:00,
2013-06-20 12:56:00,76.1,48.5,30.22,West,270,2.8,8.3,38,0.00,,,0.00,WUHU21623XXSP,2013-06-20 16:56:00,
2013-06-20 13:01:00,75.7,47.4,30.22,West,270,2.0,8.3,37,0.00,,,0.00,WUHU21623XXSP,2013-06-20 17:01:00,
2013-06-20 13:06:00,75.7,45.9,30.21,South,180,2.1,7.8,35,0.00,,,0.00,WUHU21623XXSP,2013-06-20 17:06:00,
2013-06-20 13:11:00,75.9,43.8,30.21,ENE,67,4.5,7.8,32,0.00,,,0.00,WUHU21623XXSP,2013-06-20 17:11:00,
2013-06-20 13:16:00,75.9,45.4,30.21,WSW,247,2.7,6.7,34,0.00,,,0.00,WUHU21623XXSP,2013-06-20 17:16:00,
2013-06-20 13:21:00,76.3,46.5,30.21,NNW,337,0.0,6.7,35,0.00,,,0.00,WUHU21623XXSP,2013-06-20 17:21:00,
2013-06-20 13:26:00,76.8,43.7,30.20,WSW,247,3.1,4.3,31,0.00,,,0.00,WUHU21623XXSP,2013-06-20 17:26:00,
2013-06-20 13:31:00,77.7,45.3,30.21,SW,225,3.0,6.8,32,0.00,,,0.00,WUHU21623XXSP,2013-06-20 17:31:00,
2013-06-20 13:36:00,77.5,46.0,30.21,NW,315,3.5,6.8,33,0.00,,,0.00,WUHU21623XXSP,2013-06-20 17:36:00,
2013-06-20 13:41:00,77.7,45.3,30.20,SSE,157,3.0,7.3,32,0.00,,,0.00,WUHU21623XXSP,2013-06-20 17:41:00,
2013-06-20 13:46:00,76.6,45.2,30.20,SSW,202,1.1,7.7,33,0.00,,,0.00,WUHU21623XXSP,2013-06-20 17:46:00,
2013-06-20 13:51:00,77.9,43.8,30.20,West,270,0.0,9.1,30,0.00,,,0.00,WUHU21623XXSP,2013-06-20 17:51:00,
2013-06-20 13:56:00,78.1,39.3,30.20,West,270,6.9,9.1,25,0.00,,,0.00,WUHU21623XXSP,2013-06-20 17:56:00,
2013-06-20 14:01:00,78.6,42.6,30.20,SSW,202,0.0,7.7,28,0.00,,,0.00,WUHU21623XXSP,2013-06-20 18:01:00,
2013-06-20 14:06:00,77.9,42.0,30.19,SSE,157,0.0,7.7,28,0.00,,,0.00,WUHU21623XXSP,2013-06-20 18:06:00,
2013-06-20 14:11:00,78.4,47.6,30.19,SSW,202,2.0,6.4,34,0.00,,,0.00,WUHU21623XXSP,2013-06-20 18:11:00,
2013-06-20 14:16:00,79.2,43.1,30.19,SW,225,1.1,8.9,28,0.00,,,0.00,WUHU21623XXSP,2013-06-20 18:16:00,
2013-06-20 14:21:00,78.4,45.1,30.18,SW,225,1.6,8.9,31,0.00,,,0.00,WUHU21623XXSP,2013-06-20 18:21:00,
2013-06-20 14:26:00,78.6,44.4,30.19,SW,225,2.1,8.1,30,0.00,,,0.00,WUHU21623XXSP,2013-06-20 18:26:00,
2013-06-20 14:31:00,79.9,42.8,30.19,SE,135,0.0,9.4,27,0.00,,,0.00,WUHU21623XXSP,2013-06-20 18:31:00,
2013-06-20 14:36:00,79.3,44.1,30.19,South,180,1.2,9.4,29,0.00,,,0.00,WUHU21623XXSP,2013-06-20 18:36:00,
2013-06-20 14:41:00,79.0,43.9,30.19,NNW,337,2.5,5.4,29,0.00,,,0.00,WUHU21623XXSP,2013-06-20 18:41:00,
2013-06-20 14:46:00,79.0,46.5,30.19,NE,45,0.0,5.4,32,0.00,,,0.00,WUHU21623XXSP,2013-06-20 18:46:00,
2013-06-20 14:51:00,79.3,44.1,30.18,SW,225,3.7,5.2,29,0.00,,,0.00,WUHU21623XXSP,2013-06-20 18:51:00,
2013-06-20 14:56:00,79.7,41.7,30.18,West,270,2.8,5.2,26,0.00,,,0.00,WUHU21623XXSP,2013-06-20 18:56:00,
2013-06-20 15:01:00,80.8,41.6,30.18,West,270,6.0,7.6,25,0.00,,,0.00,WUHU21623XXSP,2013-06-20 19:01:00,
2013-06-20 15:06:00,80.4,43.2,30.18,NNE,22,0.0,7.6,27,0.00,,,0.00,WUHU21623XXSP,2013-06-20 19:06:00,
2013-06-20 15:11:00,80.8,42.6,30.18,West,270,0.8,6.2,26,0.00,,,0.00,WUHU21623XXSP,2013-06-20 19:11:00,
2013-06-20 15:16:00,81.0,41.8,30.18,West,270,1.1,6.7,25,0.00,,,0.00,WUHU21623XXSP,2013-06-20 19:16:00,
2013-06-20 15:21:00,81.7,44.3,30.19,West,270,3.7,6.7,27,0.00,,,0.00,WUHU21623XXSP,2013-06-20 19:21:00,
2013-06-20 15:26:00,81.0,41.8,30.18,West,270,5.4,5.6,25,0.00,,,0.00,WUHU21623XXSP,2013-06-20 19:26:00,
2013-06-20 15:31:00,81.9,45.5,30.18,SW,225,0.0,8.5,28,0.00,,,0.00,WUHU21623XXSP,2013-06-20 19:31:00,
2013-06-20 15:36:00,82.0,43.6,30.18,SE,135,0.0,9.3,26,0.00,,,0.00,WUHU21623XXSP,2013-06-20 19:36:00,
2013-06-20 15:41:00,81.7,42.4,30.18,SE,135,0.0,9.3,25,0.00,,,0.00,WUHU21623XXSP,2013-06-20 19:41:00,
2013-06-20 15:46:00,82.0,47.4,30.18,NNE,22,3.1,7.5,30,0.00,,,0.00,WUHU21623XXSP,2013-06-20 19:46:00,
2013-06-20 15:51:00,82.0,43.6,30.18,West,270,1.9,6.8,26,0.00,,,0.00,WUHU21623XXSP,2013-06-20 19:51:00,
2013-06-20 15:56:00,82.6,41.0,30.18,West,270,1.8,10.3,23,0.00,,,0.00,WUHU21623XXSP,2013-06-20 19:56:00,
2013-06-20 16:01:00,82.8,46.2,30.18,SW,225,0.0,10.3,28,0.00,,,0.00,WUHU21623XXSP,2013-06-20 20:01:00,
2013-06-20 16:06:00,82.0,43.6,30.17,SSW,202,2.6,8.8,26,0.00,,,0.00,WUHU21623XXSP,2013-06-20 20:06:00,
2013-06-20 16:11:00,82.8,45.3,30.17,West,270,1.1,8.8,27,0.00,,,0.00,WUHU21623XXSP,2013-06-20 20:11:00,
2013-06-20 16:16:00,81.5,42.2,30.17,NNE,22,0.0,4.8,25,0.00,,,0.00,WUHU21623XXSP,2013-06-20 20:16:00,
2013-06-20 16:21:00,81.9,42.5,30.17,West,270,2.9,8.9,25,0.00,,,0.00,WUHU21623XXSP,2013-06-20 20:21:00,
2013-06-20 16:26:00,80.2,42.1,30.17,SW,225,0.0,8.9,26,0.00,,,0.00,WUHU21623XXSP,2013-06-20 20:26:00,
2013-06-20 16:31:00,80.1,41.0,30.17,West,270,3.5,8.0,25,0.00,,,0.00,WUHU21623XXSP,2013-06-20 20:31:00,
2013-06-20 16:36:00,80.6,43.4,30.17,SW,225,2.4,5.2,27,0.00,,,0.00,WUHU21623XXSP,2013-06-20 20:36:00,
2013-06-20 16:41:00,81.3,44.0,30.16,West,270,1.9,3.8,27,0.00,,,0.00,WUHU21623XXSP,2013-06-20 20:41:00,
2013-06-20 16:46:00,82.0,43.6,30.17,West,270,0.0,7.9,26,0.00,,,0.00,WUHU21623XXSP,2013-06-20 20:46:00,
2013-06-20 16:51:00,81.5,46.9,30.16,West,270,2.1,7.9,30,0.00,,,0.00,WUHU21623XXSP,2013-06-20 20:51:00,
2013-06-20 16:56:00,81.7,48.8,30.17,West,270,1.4,3.5,32,0.00,,,0.00,WUHU21623XXSP,2013-06-20 20:56:00,
2013-06-20 17:01:00,81.5,42.2,30.17,SE,135,0.0,11.5,25,0.00,,,0.00,WUHU21623XXSP,2013-06-20 21:01:00,
2013-06-20 17:06:00,80.6,45.3,30.17,SW,225,2.5,11.5,29,0.00,,,0.00,WUHU21623XXSP,2013-06-20 21:06:00,
2013-06-20 17:11:00,79.7,42.6,30.17,WSW,247,1.5,5.7,27,0.00,,,0.00,WUHU21623XXSP,2013-06-20 21:11:00,
2013-06-20 17:16:00,78.4,45.9,30.17,NW,315,0.0,5.7,32,0.00,,,0.00,WUHU21623XXSP,2013-06-20 21:16:00,
2013-06-20 17:21:00,77.7,48.5,30.17,NW,315,0.0,3.6,36,0.00,,,0.00,WUHU21623XXSP,2013-06-20 21:21:00,
2013-06-20 17:26:00,77.4,48.2,30.17,NW,315,0.0,3.6,36,0.00,,,0.00,WUHU21623XXSP,2013-06-20 21:26:00,
2013-06-20 17:31:00,78.1,48.1,30.17,WNW,292,2.1,4.1,35,0.00,,,0.00,WUHU21623XXSP,2013-06-20 21:31:00,
2013-06-20 17:36:00,77.2,47.3,30.17,WNW,292,0.0,8.2,35,0.00,,,0.00,WUHU21623XXSP,2013-06-20 21:36:00,
2013-06-20 17:41:00,75.4,46.4,30.17,WNW,292,0.0,8.2,36,0.00,,,0.00,WUHU21623XXSP,2013-06-20 21:41:00,
2013-06-20 17:46:00,75.4,47.9,30.16,NW,315,0.0,0.0,38,0.00,,,0.00,WUHU21623XXSP,2013-06-20 21:46:00,
2013-06-20 17:51:00,75.0,48.9,30.16,NW,315,1.6,1.9,40,0.00,,,0.00,WUHU21623XXSP,2013-06-20 21:51:00,
2013-06-20 17:56:00,74.7,46.6,30.16,NW,315,0.0,1.9,37,0.00,,,0.00,WUHU21623XXSP,2013-06-20 21:56:00,
2013-06-20 18:01:00,74.1,46.7,30.16,NW,315,0.0,1.7,38,0.00,,,0.00,WUHU21623XXSP,2013-06-20 22:01:00,
2013-06-20 18:06:00,74.5,47.1,30.16,NNW,337,0.0,3.6,38,0.00,,,0.00,WUHU21623XXSP,2013-06-20 22:06:00,
2013-06-20 18:11:00,74.1,46.7,30.16,NW,315,0.0,5.3,38,0.00,,,0.00,WUHU21623XXSP,2013-06-20 22:11:00,
2013-06-20 18:16:00,74.3,46.2,30.16,NNE,22,0.0,5.3,37,0.00,,,0.00,WUHU21623XXSP,2013-06-20 22:16:00,
2013-06-20 18:21:00,73.9,46.6,30.16,NNE,22,0.0,1.9,38,0.00,,,0.00,WUHU21623XXSP,2013-06-20 22:21:00,
2013-06-20 18:26:00,74.1,47.4,30.16,NW,315,0.0,4.5,39,0.00,,,0.00,WUHU21623XXSP,2013-06-20 22:26:00,
2013-06-20 18:31:00,73.0,47.1,30.16,NW,315,0.0,4.5,40,0.00,,,0.00,WUHU21623XXSP,2013-06-20 22:31:00,
2013-06-20 18:36:00,72.5,47.4,30.16,NW,315,0.0,0.0,41,0.00,,,0.00,WUHU21623XXSP,2013-06-20 22:36:00,
2013-06-20 18:41:00,72.5,46.7,30.16,NW,315,0.0,0.0,40,0.00,,,0.00,WUHU21623XXSP,2013-06-20 22:41:00,
2013-06-20 18:46:00,72.5,47.4,30.16,NW,315,0.0,0.0,41,0.00,,,0.00,WUHU21623XXSP,2013-06-20 22:46:00,
2013-06-20 18:51:00,72.5,46.7,30.16,NW,315,0.0,0.0,40,0.00,,,0.00,WUHU21623XXSP,2013-06-20 22:51:00,
2013-06-20 18:56:00,72.5,46.7,30.16,NW,315,0.0,0.0,40,0.00,,,0.00,WUHU21623XXSP,2013-06-20 22:56:00,
2013-06-20 19:01:00,72.3,47.2,30.15,NW,315,0.0,0.0,41,0.00,,,0.00,WUHU21623XXSP,2013-06-20 23:01:00,
2013-06-20 19:06:00,72.1,47.0,30.15,NW,315,0.0,0.0,41,0.00,,,0.00,WUHU21623XXSP,2013-06-20 23:06:00,
2013-06-20 19:11:00,72.0,46.9,30.16,NW,315,0.0,0.0,41,0.00,,,0.00,WUHU21623XXSP,2013-06-20 23:11:00,
2013-06-20 19:16:00,71.8,48.0,30.16,NW,315,0.0,2.4,43,0.00,,,0.00,WUHU21623XXSP,2013-06-20 23:16:00,
2013-06-20 19:21:00,71.4,48.3,30.16,NW,315,0.0,2.4,44,0.00,,,0.00,WUHU21623XXSP,2013-06-20 23:21:00,
2013-06-20 19:26:00,71.1,49.3,30.16,NW,315,0.0,0.0,46,0.00,,,0.00,WUHU21623XXSP,2013-06-20 23:26:00,
2013-06-20 19:31:00,71.1,49.3,30.16,NW,315,0.0,0.0,46,0.00,,,0.00,WUHU21623XXSP,2013-06-20 23:31:00,
2013-06-20 19:36:00,70.7,48.9,30.16,NW,315,0.0,0.0,46,0.00,,,0.00,WUHU21623XXSP,2013-06-20 23:36:00,
2013-06-20 19:41:00,70.7,49.5,30.16,NW,315,0.0,0.0,47,0.00,,,0.00,WUHU21623XXSP,2013-06-20 23:41:00,
2013-06-20 19:46:00,70.2,50.2,30.16,NW,315,0.0,0.0,49,0.00,,,0.00,WUHU21623XXSP,2013-06-20 23:46:00,
2013-06-20 19:51:00,69.8,50.4,30.16,NW,315,0.0,0.0,50,0.00,,,0.00,WUHU21623XXSP,2013-06-20 23:51:00,
2013-06-20 19:56:00,69.3,50.5,30.16,NW,315,0.0,0.0,51,0.00,,,0.00,WUHU21623XXSP,2013-06-20 23:56:00,
2013-06-20 20:01:00,68.9,50.6,30.17,NW,315,0.0,0.0,52,0.00,,,0.00,WUHU21623XXSP,2013-06-21 00:01:00,
2013-06-20 20:06:00,68.5,51.3,30.17,NW,315,0.0,0.0,54,0.00,,,0.00,WUHU21623XXSP,2013-06-21 00:06:00,
2013-06-20 20:11:00,68.4,51.7,30.17,NW,315,0.0,0.0,55,0.00,,,0.00,WUHU21623XXSP,2013-06-21 00:11:00,
2013-06-20 20:16:00,67.8,51.7,30.17,NW,315,0.0,0.0,56,0.00,,,0.00,WUHU21623XXSP,2013-06-21 00:16:00,
2013-06-20 20:21:00,67.5,51.4,30.17,NW,315,0.0,0.0,56,0.00,,,0.00,WUHU21623XXSP,2013-06-21 00:21:00,
2013-06-20 20:26:00,66.9,51.3,30.17,NW,315,0.0,0.0,57,0.00,,,0.00,WUHU21623XXSP,2013-06-21 00:26:00,
2013-06-20 20:31:00,66.4,51.3,30.17,NW,315,0.0,0.0,58,0.00,,,0.00,WUHU21623XXSP,2013-06-21 00:31:00,
2013-06-20 20:36:00,65.8,50.8,30.17,NW,315,0.0,0.0,58,0.00,,,0.00,WUHU21623XXSP,2013-06-21 00:36:00,
2013-06-20 20:41:00,65.3,50.3,30.17,NW,315,0.0,0.0,58,0.00,,,0.00,WUHU21623XXSP,2013-06-21 00:41:00,
2013-06-20 20:46:00,64.8,50.7,30.17,NW,315,0.0,0.0,60,0.00,,,0.00,WUHU21623XXSP,2013-06-21 00:46:00,
2013-06-20 20:51:00,64.4,50.4,30.18,NW,315,0.0,0.0,60,0.00,,,0.00,WUHU21623XXSP,2013-06-21 00:51:00,
2013-06-20 20:56:00,64.0,50.0,30.18,NW,315,0.0,0.0,60,0.00,,,0.00,WUHU21623XXSP,2013-06-21 00:56:00,
2013-06-20 21:01:00,63.5,50.0,30.18,NW,315,0.0,0.0,61,0.00,,,0.00,WUHU21623XXSP,2013-06-21 01:01:00,
2013-06-20 21:06:00,63.3,49.8,30.19,NW,315,0.0,0.0,61,0.00,,,0.00,WUHU21623XXSP,2013-06-21 01:06:00,
2013-06-20 21:11:00,62.8,49.3,30.18,NW,315,0.0,0.0,61,0.00,,,0.00,WUHU21623XXSP,2013-06-21 01:11:00,
2013-06-20 21:16:00,62.6,49.5,30.19,NW,315,0.0,0.0,62,0.00,,,0.00,WUHU21623XXSP,2013-06-21 01:16:00,
2013-06-20 21:21:00,62.1,49.1,30.19,NW,315,0.0,0.0,62,0.00,,,0.00,WUHU21623XXSP,2013-06-21 01:21:00,
2013-06-20 21:26:00,61.7,48.7,30.19,NW,315,0.0,0.0,62,0.00,,,0.00,WUHU21623XXSP,2013-06-21 01:26:00,
2013-06-20 21:31:00,61.5,49.4,30.19,NW,315,0.0,0.0,64,0.00,,,0.00,WUHU21623XXSP,2013-06-21 01:31:00,
2013-06-20 21:36:00,61.0,48.9,30.19,NW,315,0.0,2.0,64,0.00,,,0.00,WUHU21623XXSP,2013-06-21 01:36:00,
2013-06-20 21:41:00,60.4,48.3,30.20,NW,315,0.0,2.0,64,0.00,,,0.00,WUHU21623XXSP,2013-06-21 01:41:00,
2013-06-20 21:46:00,60.3,48.6,30.20,NW,315,0.0,0.0,65,0.00,,,0.00,WUHU21623XXSP,2013-06-21 01:46:00,
2013-06-20 21:51:00,59.9,48.3,30.20,NW,315,0.0,0.0,65,0.00,,,0.00,WUHU21623XXSP,2013-06-21 01:51:00,
2013-06-20 21:56:00,59.7,48.5,30.20,NW,315,0.0,0.0,66,0.00,,,0.00,WUHU21623XXSP,2013-06-21 01:56:00,
2013-06-20 22:01:00,59.5,48.7,30.20,NW,315,0.0,0.0,67,0.00,,,0.00,WUHU21623XXSP,2013-06-21 02:01:00,
2013-06-20 22:06:00,59.4,48.6,30.20,NW,315,0.0,0.0,67,0.00,,,0.00,WUHU21623XXSP,2013-06-21 02:06:00,
2013-06-20 22:11:00,59.2,48.4,30.20,NW,315,0.0,0.0,67,0.00,,,0.00,WUHU21623XXSP,2013-06-21 02:11:00,
2013-06-20 22:16:00,58.8,48.0,30.20,NW,315,0.0,0.0,67,0.00,,,0.00,WUHU21623XXSP,2013-06-21 02:16:00,
2013-06-20 22:21:00,58.5,47.3,30.20,NW,315,0.0,0.0,66,0.00,,,0.00,WUHU21623XXSP,2013-06-21 02:21:00,
2013-06-20 22:26:00,58.1,46.9,30.20,NW,315,0.0,0.0,66,0.00,,,0.00,WUHU21623XXSP,2013-06-21 02:26:00,
2013-06-20 22:31:00,57.9,47.1,30.20,NW,315,0.0,0.0,67,0.00,,,0.00,WUHU21623XXSP,2013-06-21 02:31:00,
2013-06-20 22:36:00,57.6,47.2,30.20,NW,315,0.0,0.0,68,0.00,,,0.00,WUHU21623XXSP,2013-06-21 02:36:00,
2013-06-20 22:41:00,57.4,47.1,30.20,NW,315,0.0,0.0,68,0.00,,,0.00,WUHU21623XXSP,2013-06-21 02:41:00,
2013-06-20 22:46:00,57.4,47.1,30.20,NW,315,0.0,0.0,68,0.00,,,0.00,WUHU21623XXSP,2013-06-21 02:46:00,
2013-06-20 22:51:00,57.2,47.3,30.20,NW,315,0.0,0.0,69,0.00,,,0.00,WUHU21623XXSP,2013-06-21 02:51:00,
2013-06-20 22:56:00,57.0,47.1,30.20,NW,315,0.0,0.0,69,0.00,,,0.00,WUHU21623XXSP,2013-06-21 02:56:00,
2013-06-20 23:01:00,56.8,46.9,30.20,NW,315,0.0,0.0,69,0.00,,,0.00,WUHU21623XXSP,2013-06-21 03:01:00,
2013-06-20 23:06:00,56.8,46.9,30.21,NW,315,0.0,0.0,69,0.00,,,0.00,WUHU21623XXSP,2013-06-21 03:06:00,
2013-06-20 23:11:00,56.7,47.1,30.21,NW,315,0.0,0.0,70,0.00,,,0.00,WUHU21623XXSP,2013-06-21 03:11:00,
2013-06-20 23:16:00,56.5,47.0,30.21,NW,315,0.0,0.0,70,0.00,,,0.00,WUHU21623XXSP,2013-06-21 03:16:00,
2013-06-20 23:21:00,56.3,46.8,30.21,NW,315,0.0,0.0,70,0.00,,,0.00,WUHU21623XXSP,2013-06-21 03:21:00,
2013-06-20 23:26:00,56.3,47.1,30.21,NW,315,0.0,0.0,71,0.00,,,0.00,WUHU21623XXSP,2013-06-21 03:26:00,
2013-06-20 23:31:00,55.9,46.7,30.21,NW,315,0.0,0.0,71,0.00,,,0.00,WUHU21623XXSP,2013-06-21 03:31:00,
2013-06-20 23:36:00,55.8,46.7,30.21,NW,315,0.0,0.0,71,0.00,,,0.00,WUHU21623XXSP,2013-06-21 03:36:00,
2013-06-20 23:41:00,55.6,46.5,30.21,NW,315,0.0,0.0,71,0.00,,,0.00,WUHU21623XXSP,2013-06-21 03:41:00,
2013-06-20 23:46:00,55.4,46.3,30.21,NW,315,0.0,0.0,71,0.00,,,0.00,WUHU21623XXSP,2013-06-21 03:46:00,
2013-06-20 23:51:00,55.2,46.1,30.21,NW,315,0.0,0.0,71,0.00,,,0.00,WUHU21623XXSP,2013-06-21 03:51:00,
2013-06-20 23:56:00,55.0,46.2,30.21,NW,315,0.0,0.0,72,0.00,,,0.00,WUHU21623XXSP,2013-06-21 03:56:00,